sensor_id;sensor_type;location;lat;lon;timestamp;pressure;altitude;pressure_sealevel;temperature;humidity
5296;BME280;2670;42.720;23.336;2022-09-13T00:00:48;-22877.69;;;15.00;100.00
5296;BME280;2670;42.720;23.336;2022-09-13T00:03:15;-22879.31;;;15.05;100.00
5296;BME280;2670;42.720;23.336;2022-09-13T00:05:42;-22878.44;;;15.02;100.00
5296;BME280;2670;42.720;23.336;2022-09-13T00:08:11;-22879.91;;;15.07;100.00
5296;BME280;2670;42.720;23.336;2022-09-13T00:10:39;-22879.16;;;15.05;100.00
5296;BME280;2670;42.720;23.336;2022-09-13T00:13:07;-22883.16;;;15.18;100.00
5296;BME280;2670;42.720;23.336;2022-09-13T00:15:35;-22880.78;;;15.10;100.00
5296;BME280;2670;42.720;23.336;2022-09-13T00:18:02;-22881.97;;;15.14;100.00
5296;BME280;2670;42.720;23.336;2022-09-13T00:20:29;-22881.06;;;15.11;100.00
5296;BME280;2670;42.720;23.336;2022-09-13T00:22:56;-22885.34;;;15.26;100.00
5296;BME280;2670;42.720;23.336;2022-09-13T00:25:24;-22884.91;;;15.25;100.00
5296;BME280;2670;42.720;23.336;2022-09-13T00:27:51;-22885.06;;;15.25;100.00
5296;BME280;2670;42.720;23.336;2022-09-13T00:30:17;-22886.53;;;15.30;100.00
5296;BME280;2670;42.720;23.336;2022-09-13T00:32:44;-22886.38;;;15.30;100.00
5296;BME280;2670;42.720;23.336;2022-09-13T00:35:11;-22885.94;;;15.28;100.00
5296;BME280;2670;42.720;23.336;2022-09-13T00:37:37;-22885.19;;;15.26;100.00
5296;BME280;2670;42.720;23.336;2022-09-13T00:40:06;-22885.50;;;15.27;100.00
5296;BME280;2670;42.720;23.336;2022-09-13T00:42:34;-22885.78;;;15.28;100.00
5296;BME280;2670;42.720;23.336;2022-09-13T00:45:13;-22886.22;;;15.29;100.00
5296;BME280;2670;42.720;23.336;2022-09-13T00:47:42;-22886.97;;;15.32;100.00
5296;BME280;2670;42.720;23.336;2022-09-13T00:50:16;-22887.25;;;15.33;100.00
5296;BME280;2670;42.720;23.336;2022-09-13T00:52:46;-22888.28;;;15.36;100.00
5296;BME280;2670;42.720;23.336;2022-09-13T00:55:18;-22887.41;;;15.33;100.00
5296;BME280;2670;42.720;23.336;2022-09-13T00:57:48;-22886.97;;;15.32;100.00
5296;BME280;2670;42.720;23.336;2022-09-13T01:00:17;-22885.19;;;15.26;100.00
5296;BME280;2670;42.720;23.336;2022-09-13T01:02:46;-22885.34;;;15.26;100.00
5296;BME280;2670;42.720;23.336;2022-09-13T01:05:17;-22886.38;;;15.30;100.00
5296;BME280;2670;42.720;23.336;2022-09-13T01:07:46;-22886.22;;;15.29;100.00
5296;BME280;2670;42.720;23.336;2022-09-13T01:10:13;-22885.34;;;15.26;100.00
5296;BME280;2670;42.720;23.336;2022-09-13T01:12:42;-22887.41;;;15.33;100.00
5296;BME280;2670;42.720;23.336;2022-09-13T01:15:12;-22886.53;;;15.30;100.00
5296;BME280;2670;42.720;23.336;2022-09-13T01:17:39;-22886.81;;;15.31;100.00
5296;BME280;2670;42.720;23.336;2022-09-13T01:20:08;-22884.91;;;15.25;100.00
5296;BME280;2670;42.720;23.336;2022-09-13T01:23:09;-22885.19;;;15.26;100.00
5296;BME280;2670;42.720;23.336;2022-09-13T01:26:12;-22888.44;;;15.37;100.00
5296;BME280;2670;42.720;23.336;2022-09-13T01:29:14;-22888.28;;;15.36;100.00
5296;BME280;2670;42.720;23.336;2022-09-13T01:31:53;-22885.06;;;15.25;100.00
5296;BME280;2670;42.720;23.336;2022-09-13T01:34:29;-22887.41;;;15.33;100.00
5296;BME280;2670;42.720;23.336;2022-09-13T01:37:23;-22886.22;;;15.29;100.00
5296;BME280;2670;42.720;23.336;2022-09-13T01:40:05;-22890.34;;;15.43;100.00
5296;BME280;2670;42.720;23.336;2022-09-13T01:42:43;-22887.13;;;15.32;100.00
5296;BME280;2670;42.720;23.336;2022-09-13T01:45:21;-22886.09;;;15.29;100.00
5296;BME280;2670;42.720;23.336;2022-09-13T01:47:55;-22885.66;;;15.27;100.00
5296;BME280;2670;42.720;23.336;2022-09-13T01:50:33;-22882.41;;;15.16;100.00
5296;BME280;2670;42.720;23.336;2022-09-13T01:53:06;-22883.28;;;15.19;100.00
5296;BME280;2670;42.720;23.336;2022-09-13T01:55:41;-22883.16;;;15.18;100.00
5296;BME280;2670;42.720;23.336;2022-09-13T01:58:18;-22881.66;;;15.13;100.00
5296;BME280;2670;42.720;23.336;2022-09-13T02:00:51;-22883.88;;;15.21;100.00
5296;BME280;2670;42.720;23.336;2022-09-13T02:03:27;-22883.44;;;15.19;100.00
5296;BME280;2670;42.720;23.336;2022-09-13T02:05:58;-22886.53;;;15.30;100.00
5296;BME280;2670;42.720;23.336;2022-09-13T02:08:34;-22885.19;;;15.26;100.00
5296;BME280;2670;42.720;23.336;2022-09-13T02:11:08;-22887.84;;;15.35;100.00
5296;BME280;2670;42.720;23.336;2022-09-13T02:13:38;-22888.00;;;15.35;100.00
5296;BME280;2670;42.720;23.336;2022-09-13T02:16:10;-22882.69;;;15.17;100.00
5296;BME280;2670;42.720;23.336;2022-09-13T02:18:41;-22882.13;;;15.15;100.00
5296;BME280;2670;42.720;23.336;2022-09-13T02:21:11;-22881.38;;;15.12;100.00
5296;BME280;2670;42.720;23.336;2022-09-13T02:23:43;-22878.72;;;15.03;100.00
5296;BME280;2670;42.720;23.336;2022-09-13T02:26:13;-22875.63;;;14.92;100.00
5296;BME280;2670;42.720;23.336;2022-09-13T02:28:42;-22875.63;;;14.92;100.00
5296;BME280;2670;42.720;23.336;2022-09-13T02:31:11;-22875.34;;;14.91;100.00
5296;BME280;2670;42.720;23.336;2022-09-13T02:33:44;-22876.97;;;14.97;100.00
5296;BME280;2670;42.720;23.336;2022-09-13T02:36:15;-22877.84;;;15.00;100.00
5296;BME280;2670;42.720;23.336;2022-09-13T02:38:49;-22875.19;;;14.91;100.00
5296;BME280;2670;42.720;23.336;2022-09-13T02:41:20;-22873.84;;;14.86;100.00
5296;BME280;2670;42.720;23.336;2022-09-13T02:43:56;-22873.28;;;14.84;100.00
5296;BME280;2670;42.720;23.336;2022-09-13T02:46:34;-22872.25;;;14.81;100.00
5296;BME280;2670;42.720;23.336;2022-09-13T02:49:11;-22870.91;;;14.76;100.00
5296;BME280;2670;42.720;23.336;2022-09-13T02:51:46;-22869.00;;;14.69;100.00
5296;BME280;2670;42.720;23.336;2022-09-13T02:54:24;-22874.75;;;14.89;100.00
5296;BME280;2670;42.720;23.336;2022-09-13T02:56:56;-22869.44;;;14.71;100.00
5296;BME280;2670;42.720;23.336;2022-09-13T02:59:25;-22868.69;;;14.68;100.00
5296;BME280;2670;42.720;23.336;2022-09-13T03:01:56;-22867.53;;;14.64;100.00
5296;BME280;2670;42.720;23.336;2022-09-13T03:04:26;-22871.06;;;14.77;100.00
5296;BME280;2670;42.720;23.336;2022-09-13T03:06:53;-22866.63;;;14.61;100.00
5296;BME280;2670;42.720;23.336;2022-09-13T03:09:21;-22863.84;;;14.52;100.00
5296;BME280;2670;42.720;23.336;2022-09-13T03:12:02;-22863.97;;;14.52;100.00
5296;BME280;2670;42.720;23.336;2022-09-13T03:14:39;-22861.31;;;14.43;100.00
5296;BME280;2670;42.720;23.336;2022-09-13T03:17:18;-22865.91;;;14.59;100.00
5296;BME280;2670;42.720;23.336;2022-09-13T03:20:02;-22863.25;;;14.50;100.00
5296;BME280;2670;42.720;23.336;2022-09-13T03:25:47;-22856.31;;;14.26;100.00
5296;BME280;2670;42.720;23.336;2022-09-13T03:28:24;-22858.69;;;14.34;100.00
5296;BME280;2670;42.720;23.336;2022-09-13T03:30:58;-22856.31;;;14.26;100.00
5296;BME280;2670;42.720;23.336;2022-09-13T03:33:35;-22857.03;;;14.28;100.00
5296;BME280;2670;42.720;23.336;2022-09-13T03:36:11;-22860.59;;;14.40;100.00
5296;BME280;2670;42.720;23.336;2022-09-13T03:38:43;-22862.66;;;14.48;100.00
5296;BME280;2670;42.720;23.336;2022-09-13T03:41:15;-22866.78;;;14.62;100.00
5296;BME280;2670;42.720;23.336;2022-09-13T03:43:47;-22858.09;;;14.32;100.00
5296;BME280;2670;42.720;23.336;2022-09-13T03:46:20;-22855.56;;;14.23;100.00
5296;BME280;2670;42.720;23.336;2022-09-13T03:48:49;-22852.63;;;14.13;100.00
5296;BME280;2670;42.720;23.336;2022-09-13T03:51:18;-22847.47;;;13.95;100.00
5296;BME280;2670;42.720;23.336;2022-09-13T03:53:48;-22845.84;;;13.89;100.00
5296;BME280;2670;42.720;23.336;2022-09-13T03:56:19;-22844.06;;;13.83;100.00
5296;BME280;2670;42.720;23.336;2022-09-13T03:58:46;-22846.13;;;13.90;100.00
5296;BME280;2670;42.720;23.336;2022-09-13T04:01:13;-22844.38;;;13.84;100.00
5296;BME280;2670;42.720;23.336;2022-09-13T04:03:40;-22843.78;;;13.82;100.00
5296;BME280;2670;42.720;23.336;2022-09-13T04:06:07;-22842.75;;;13.79;100.00
5296;BME280;2670;42.720;23.336;2022-09-13T04:08:35;-22842.88;;;13.79;100.00
5296;BME280;2670;42.720;23.336;2022-09-13T04:11:02;-22841.84;;;13.76;100.00
5296;BME280;2670;42.720;23.336;2022-09-13T04:13:29;-22844.06;;;13.83;100.00
5296;BME280;2670;42.720;23.336;2022-09-13T04:15:59;-22843.63;;;13.82;100.00
5296;BME280;2670;42.720;23.336;2022-09-13T04:18:26;-22851.00;;;14.07;100.00
5296;BME280;2670;42.720;23.336;2022-09-13T04:20:53;-22852.47;;;14.12;100.00
5296;BME280;2670;42.720;23.336;2022-09-13T04:23:20;-22848.19;;;13.98;100.00
5296;BME280;2670;42.720;23.336;2022-09-13T04:25:48;-22841.25;;;13.74;100.00
5296;BME280;2670;42.720;23.336;2022-09-13T04:28:16;-22838.91;;;13.65;100.00
5296;BME280;2670;42.720;23.336;2022-09-13T04:30:43;-22837.00;;;13.59;100.00
5296;BME280;2670;42.720;23.336;2022-09-13T04:33:10;-22836.69;;;13.58;100.00
5296;BME280;2670;42.720;23.336;2022-09-13T04:35:37;-22835.34;;;13.53;100.00
5296;BME280;2670;42.720;23.336;2022-09-13T04:38:05;-22832.56;;;13.43;100.00
5296;BME280;2670;42.720;23.336;2022-09-13T04:40:32;-22831.66;;;13.40;100.00
5296;BME280;2670;42.720;23.336;2022-09-13T04:43:01;-22829.59;;;13.33;100.00
5296;BME280;2670;42.720;23.336;2022-09-13T04:45:28;-22831.38;;;13.39;100.00
5296;BME280;2670;42.720;23.336;2022-09-13T04:47:55;-22834.19;;;13.49;100.00
5296;BME280;2670;42.720;23.336;2022-09-13T04:50:23;-22837.00;;;13.59;100.00
5296;BME280;2670;42.720;23.336;2022-09-13T04:52:53;-22835.81;;;13.55;100.00
5296;BME280;2670;42.720;23.336;2022-09-13T04:55:20;-22834.63;;;13.51;100.00
5296;BME280;2670;42.720;23.336;2022-09-13T04:57:52;-22837.56;;;13.61;100.00
5296;BME280;2670;42.720;23.336;2022-09-13T05:00:21;-22840.81;;;13.72;100.00
5296;BME280;2670;42.720;23.336;2022-09-13T05:02:48;-22844.06;;;13.83;100.00
5296;BME280;2670;42.720;23.336;2022-09-13T05:05:15;-22844.50;;;13.85;100.00
5296;BME280;2670;42.720;23.336;2022-09-13T05:07:41;-22841.84;;;13.76;100.00
5296;BME280;2670;42.720;23.336;2022-09-13T05:10:08;-22847.47;;;13.95;100.00
5296;BME280;2670;42.720;23.336;2022-09-13T05:12:35;-22850.56;;;14.06;100.00
5296;BME280;2670;42.720;23.336;2022-09-13T05:15:02;-22849.81;;;14.03;100.00
5296;BME280;2670;42.720;23.336;2022-09-13T05:17:30;-22851.88;;;14.10;100.00
5296;BME280;2670;42.720;23.336;2022-09-13T05:19:57;-22853.81;;;14.17;100.00
5296;BME280;2670;42.720;23.336;2022-09-13T05:22:24;-22854.69;;;14.20;100.00
5296;BME280;2670;42.720;23.336;2022-09-13T05:24:50;-22854.69;;;14.20;100.00
5296;BME280;2670;42.720;23.336;2022-09-13T05:27:17;-22856.00;;;14.25;100.00
5296;BME280;2670;42.720;23.336;2022-09-13T05:29:44;-22857.03;;;14.28;100.00
5296;BME280;2670;42.720;23.336;2022-09-13T05:32:10;-22859.41;;;14.36;100.00
5296;BME280;2670;42.720;23.336;2022-09-13T05:34:39;-22859.69;;;14.37;100.00
5296;BME280;2670;42.720;23.336;2022-09-13T05:37:05;-22864.13;;;14.53;100.00
5296;BME280;2670;42.720;23.336;2022-09-13T05:39:32;-22864.88;;;14.55;100.00
5296;BME280;2670;42.720;23.336;2022-09-13T05:42:00;-22868.56;;;14.68;100.00
5296;BME280;2670;42.720;23.336;2022-09-13T05:44:27;-22870.63;;;14.75;100.00
5296;BME280;2670;42.720;23.336;2022-09-13T05:46:54;-22871.06;;;14.77;100.00
5296;BME280;2670;42.720;23.336;2022-09-13T05:49:20;-22872.53;;;14.82;100.00
5296;BME280;2670;42.720;23.336;2022-09-13T05:51:49;-22871.94;;;14.80;100.00
5296;BME280;2670;42.720;23.336;2022-09-13T05:54:16;-22873.56;;;14.85;100.00
5296;BME280;2670;42.720;23.336;2022-09-13T05:56:42;-22876.22;;;14.94;100.00
5296;BME280;2670;42.720;23.336;2022-09-13T05:59:11;-22877.53;;;14.99;100.00
5296;BME280;2670;42.720;23.336;2022-09-13T06:01:39;-22876.06;;;14.94;100.00
5296;BME280;2670;42.720;23.336;2022-09-13T06:04:05;-22879.59;;;15.06;100.00
5296;BME280;2670;42.720;23.336;2022-09-13T06:06:33;-22878.72;;;15.03;100.00
5296;BME280;2670;42.720;23.336;2022-09-13T06:09:03;-22879.47;;;15.06;100.00
5296;BME280;2670;42.720;23.336;2022-09-13T06:11:31;-22881.81;;;15.14;100.00
5296;BME280;2670;42.720;23.336;2022-09-13T06:13:57;-22879.00;;;15.04;100.00
5296;BME280;2670;42.720;23.336;2022-09-13T06:16:24;-22882.56;;;15.16;100.00
5296;BME280;2670;42.720;23.336;2022-09-13T06:18:51;-22885.19;;;15.26;100.00
5296;BME280;2670;42.720;23.336;2022-09-13T06:21:19;-22885.94;;;15.28;100.00
5296;BME280;2670;42.720;23.336;2022-09-13T06:23:47;-22886.22;;;15.29;100.00
5296;BME280;2670;42.720;23.336;2022-09-13T06:26:18;-22886.38;;;15.30;100.00
5296;BME280;2670;42.720;23.336;2022-09-13T06:28:46;-22887.41;;;15.33;100.00
5296;BME280;2670;42.720;23.336;2022-09-13T06:31:14;-22887.25;;;15.33;100.00
5296;BME280;2670;42.720;23.336;2022-09-13T06:33:42;-22889.78;;;15.41;100.00
5296;BME280;2670;42.720;23.336;2022-09-13T06:36:11;-22890.94;;;15.45;100.00
5296;BME280;2670;42.720;23.336;2022-09-13T06:38:39;-22891.69;;;15.48;100.00
5296;BME280;2670;42.720;23.336;2022-09-13T06:41:07;-22891.09;;;15.46;100.00
5296;BME280;2670;42.720;23.336;2022-09-13T06:43:37;-22895.38;;;15.61;100.00
5296;BME280;2670;42.720;23.336;2022-09-13T06:46:05;-22896.09;;;15.63;100.00
5296;BME280;2670;42.720;23.336;2022-09-13T06:48:35;-22899.50;;;15.75;100.00
5296;BME280;2670;42.720;23.336;2022-09-13T06:51:05;-22904.06;;;15.91;100.00
5296;BME280;2670;42.720;23.336;2022-09-13T06:53:33;-22905.97;;;15.98;100.00
5296;BME280;2670;42.720;23.336;2022-09-13T06:56:03;-22909.78;;;16.11;100.00
5296;BME280;2670;42.720;23.336;2022-09-13T06:58:31;-22908.91;;;16.08;100.00
5296;BME280;2670;42.720;23.336;2022-09-13T07:01:10;-22913.03;;;16.22;99.51
5296;BME280;2670;42.720;23.336;2022-09-13T07:03:39;-22915.22;;;16.30;97.33
5296;BME280;2670;42.720;23.336;2022-09-13T07:06:11;-22914.06;;;16.26;98.33
5296;BME280;2670;42.720;23.336;2022-09-13T07:08:39;-22913.91;;;16.25;98.50
5296;BME280;2670;42.720;23.336;2022-09-13T07:11:06;-22913.75;;;16.25;98.16
5296;BME280;2670;42.720;23.336;2022-09-13T07:13:34;-22914.22;;;16.26;99.20
5296;BME280;2670;42.720;23.336;2022-09-13T07:16:02;-22919.22;;;16.43;97.44
5296;BME280;2670;42.720;23.336;2022-09-13T07:18:30;-22920.69;;;16.49;98.53
5296;BME280;2670;42.720;23.336;2022-09-13T07:20:58;-22922.75;;;16.56;95.03
5296;BME280;2670;42.720;23.336;2022-09-13T07:23:26;-22925.53;;;16.65;94.79
5296;BME280;2670;42.720;23.336;2022-09-13T07:25:53;-22925.69;;;16.66;96.18
5296;BME280;2670;42.720;23.336;2022-09-13T07:28:20;-22927.28;;;16.72;93.98
5296;BME280;2670;42.720;23.336;2022-09-13T07:30:47;-22929.34;;;16.79;93.06
5296;BME280;2670;42.720;23.336;2022-09-13T07:33:13;-22932.75;;;16.90;93.31
5296;BME280;2670;42.720;23.336;2022-09-13T07:35:42;-22933.47;;;16.93;91.65
5296;BME280;2670;42.720;23.336;2022-09-13T07:38:08;-22934.34;;;16.96;91.30
5296;BME280;2670;42.720;23.336;2022-09-13T07:40:35;-22936.13;;;17.02;89.56
5296;BME280;2670;42.720;23.336;2022-09-13T07:43:02;-22937.28;;;17.06;91.23
5296;BME280;2670;42.720;23.336;2022-09-13T07:45:29;-22938.75;;;17.11;90.59
5296;BME280;2670;42.720;23.336;2022-09-13T07:47:56;-22941.84;;;17.22;90.55
5296;BME280;2670;42.720;23.336;2022-09-13T07:50:23;-22946.41;;;17.38;87.41
5296;BME280;2670;42.720;23.336;2022-09-13T07:52:51;-22948.16;;;17.44;87.96
5296;BME280;2670;42.720;23.336;2022-09-13T07:55:18;-22945.97;;;17.36;87.31
5296;BME280;2670;42.720;23.336;2022-09-13T07:57:44;-22947.72;;;17.42;87.31
5296;BME280;2670;42.720;23.336;2022-09-13T08:00:12;-22949.34;;;17.48;89.34
5296;BME280;2670;42.720;23.336;2022-09-13T08:02:39;-22952.44;;;17.59;86.40
5296;BME280;2670;42.720;23.336;2022-09-13T08:05:06;-22954.78;;;17.67;86.66
5296;BME280;2670;42.720;23.336;2022-09-13T08:07:33;-22956.84;;;17.74;82.22
5296;BME280;2670;42.720;23.336;2022-09-13T08:10:01;-22957.28;;;17.76;83.54
5296;BME280;2670;42.720;23.336;2022-09-13T08:12:28;-22958.00;;;17.78;83.51
5296;BME280;2670;42.720;23.336;2022-09-13T08:14:55;-22960.22;;;17.86;83.82
5296;BME280;2670;42.720;23.336;2022-09-13T08:17:21;-22965.22;;;18.03;80.88
5296;BME280;2670;42.720;23.336;2022-09-13T08:19:48;-22966.38;;;18.07;77.57
5296;BME280;2670;42.720;23.336;2022-09-13T08:22:15;-22966.53;;;18.08;78.56
5296;BME280;2670;42.720;23.336;2022-09-13T08:24:41;-22965.06;;;18.03;75.61
5296;BME280;2670;42.720;23.336;2022-09-13T08:27:10;-22963.28;;;17.97;79.84
5296;BME280;2670;42.720;23.336;2022-09-13T08:29:37;-22962.72;;;17.95;79.75
5296;BME280;2670;42.720;23.336;2022-09-13T08:32:04;-22961.25;;;17.89;77.49
5296;BME280;2670;42.720;23.336;2022-09-13T08:34:31;-22954.47;;;17.66;77.60
5296;BME280;2670;42.720;23.336;2022-09-13T08:36:58;-22954.47;;;17.66;78.95
5296;BME280;2670;42.720;23.336;2022-09-13T08:39:25;-22954.63;;;17.66;78.74
5296;BME280;2670;42.720;23.336;2022-09-13T08:42:13;-22963.88;;;17.99;79.35
5296;BME280;2670;42.720;23.336;2022-09-13T08:44:43;-22968.72;;;18.15;77.48
5296;BME280;2670;42.720;23.336;2022-09-13T08:47:24;-22973.13;;;18.31;74.79
5296;BME280;2670;42.720;23.336;2022-09-13T08:49:59;-22971.50;;;18.25;75.98
5296;BME280;2670;42.720;23.336;2022-09-13T08:52:29;-22970.34;;;18.21;76.67
5296;BME280;2670;42.720;23.336;2022-09-13T08:54:58;-22972.69;;;18.29;75.81
5296;BME280;2670;42.720;23.336;2022-09-13T08:57:34;-22974.88;;;18.37;73.95
5296;BME280;2670;42.720;23.336;2022-09-13T09:00:12;-22981.19;;;18.59;71.95
5296;BME280;2670;42.720;23.336;2022-09-13T09:03:07;-22982.50;;;18.63;74.65
5296;BME280;2670;42.720;23.336;2022-09-13T09:05:44;-22984.56;;;18.71;73.44
5296;BME280;2670;42.720;23.336;2022-09-13T09:08:29;-22985.91;;;18.75;73.19
5296;BME280;2670;42.720;23.336;2022-09-13T09:11:01;-22991.31;;;18.94;70.93
5296;BME280;2670;42.720;23.336;2022-09-13T09:13:32;-22989.84;;;18.89;72.88
5296;BME280;2670;42.720;23.336;2022-09-13T09:16:03;-22990.44;;;18.91;73.66
5296;BME280;2670;42.720;23.336;2022-09-13T09:18:33;-22990.44;;;18.91;72.63
5296;BME280;2670;42.720;23.336;2022-09-13T09:21:02;-22989.28;;;18.87;71.60
5296;BME280;2670;42.720;23.336;2022-09-13T09:23:36;-22988.09;;;18.83;73.13
5296;BME280;2670;42.720;23.336;2022-09-13T09:26:14;-22987.34;;;18.80;73.87
5296;BME280;2670;42.720;23.336;2022-09-13T09:28:42;-22984.13;;;18.69;72.72
5296;BME280;2670;42.720;23.336;2022-09-13T09:31:15;-22981.78;;;18.61;72.23
5296;BME280;2670;42.720;23.336;2022-09-13T09:33:56;-22985.91;;;18.75;71.57
5296;BME280;2670;42.720;23.336;2022-09-13T09:36:33;-22987.94;;;18.82;72.25
5296;BME280;2670;42.720;23.336;2022-09-13T09:39:03;-22999.22;;;19.22;70.63
5296;BME280;2670;42.720;23.336;2022-09-13T09:41:31;-23001.72;;;19.30;71.02
5296;BME280;2670;42.720;23.336;2022-09-13T09:44:13;-22995.72;;;19.09;70.22
5296;BME280;2670;42.720;23.336;2022-09-13T09:46:43;-22994.53;;;19.05;71.50
5296;BME280;2670;42.720;23.336;2022-09-13T09:49:15;-22995.72;;;19.09;70.61
5296;BME280;2670;42.720;23.336;2022-09-13T09:52:01;-22995.72;;;19.09;71.30
5296;BME280;2670;42.720;23.336;2022-09-13T09:54:32;-22997.47;;;19.15;70.16
5296;BME280;2670;42.720;23.336;2022-09-13T09:57:00;-23003.63;;;19.37;71.07
5296;BME280;2670;42.720;23.336;2022-09-13T09:59:29;-23005.53;;;19.44;72.49
5296;BME280;2670;42.720;23.336;2022-09-13T10:01:57;-23008.19;;;19.53;70.09
5296;BME280;2670;42.720;23.336;2022-09-13T10:04:27;-23008.47;;;19.54;68.75
5296;BME280;2670;42.720;23.336;2022-09-13T10:07:09;-23012.44;;;19.68;70.02
5296;BME280;2670;42.720;23.336;2022-09-13T10:09:38;-23014.03;;;19.73;69.17
5296;BME280;2670;42.720;23.336;2022-09-13T10:12:05;-23016.38;;;19.81;69.40
5296;BME280;2670;42.720;23.336;2022-09-13T10:14:38;-23018.72;;;19.89;68.36
5296;BME280;2670;42.720;23.336;2022-09-13T10:17:17;-23020.91;;;19.97;68.00
5296;BME280;2670;42.720;23.336;2022-09-13T10:19:54;-23022.53;;;20.03;67.27
5296;BME280;2670;42.720;23.336;2022-09-13T10:22:23;-23020.19;;;19.95;67.16
5296;BME280;2670;42.720;23.336;2022-09-13T10:24:50;-23020.34;;;19.95;65.39
5296;BME280;2670;42.720;23.336;2022-09-13T10:27:29;-23021.50;;;19.99;68.50
5296;BME280;2670;42.720;23.336;2022-09-13T10:30:01;-23023.84;;;20.07;67.26
5296;BME280;2670;42.720;23.336;2022-09-13T10:32:29;-23025.03;;;20.11;66.34
5296;BME280;2670;42.720;23.336;2022-09-13T10:35:02;-23026.34;;;20.16;66.98
5296;BME280;2670;42.720;23.336;2022-09-13T10:37:33;-23030.13;;;20.29;66.38
5296;BME280;2670;42.720;23.336;2022-09-13T10:40:03;-23029.41;;;20.27;66.52
5296;BME280;2670;42.720;23.336;2022-09-13T10:42:32;-23030.72;;;20.31;66.23
5296;BME280;2670;42.720;23.336;2022-09-13T10:45:03;-23036.72;;;20.52;65.26
5296;BME280;2670;42.720;23.336;2022-09-13T10:47:32;-23032.03;;;20.36;64.35
5296;BME280;2670;42.720;23.336;2022-09-13T10:50:18;-23025.31;;;20.12;65.72
5296;BME280;2670;42.720;23.336;2022-09-13T10:52:46;-23020.63;;;19.96;67.19
5296;BME280;2670;42.720;23.336;2022-09-13T10:55:31;-23025.75;;;20.14;66.26
5296;BME280;2670;42.720;23.336;2022-09-13T10:58:15;-23027.06;;;20.19;67.47
5296;BME280;2670;42.720;23.336;2022-09-13T11:06:41;-23034.81;;;20.46;62.58
5296;BME280;2670;42.720;23.336;2022-09-13T11:09:17;-23029.41;;;20.27;64.50
5296;BME280;2670;42.720;23.336;2022-09-13T11:11:50;-23027.34;;;20.20;65.72
5296;BME280;2670;42.720;23.336;2022-09-13T11:14:36;-23029.13;;;20.26;65.51
5296;BME280;2670;42.720;23.336;2022-09-13T11:17:16;-23026.63;;;20.17;63.93
5296;BME280;2670;42.720;23.336;2022-09-13T11:19:59;-23034.69;;;20.45;60.89
5296;BME280;2670;42.720;23.336;2022-09-13T11:22:42;-23033.78;;;20.42;63.95
5296;BME280;2670;42.720;23.336;2022-09-13T11:25:26;-23036.28;;;20.51;62.35
5296;BME280;2670;42.720;23.336;2022-09-13T11:28:01;-23035.25;;;20.47;61.97
5296;BME280;2670;42.720;23.336;2022-09-13T11:30:35;-23037.03;;;20.53;64.01
5296;BME280;2670;42.720;23.336;2022-09-13T11:33:32;-23041.41;;;20.69;62.47
5296;BME280;2670;42.720;23.336;2022-09-13T11:36:16;-23040.25;;;20.64;62.05
5296;BME280;2670;42.720;23.336;2022-09-13T11:38:58;-23036.28;;;20.51;61.90
5296;BME280;2670;42.720;23.336;2022-09-13T11:41:35;-23036.88;;;20.53;62.71
5296;BME280;2670;42.720;23.336;2022-09-13T11:47:02;-23046.38;;;20.86;62.34
5296;BME280;2670;42.720;23.336;2022-09-13T11:49:41;-23048.13;;;20.92;60.83
5296;BME280;2670;42.720;23.336;2022-09-13T11:52:20;-23049.59;;;20.97;62.98
5296;BME280;2670;42.720;23.336;2022-09-13T11:55:00;-23055.28;;;21.17;61.08
5296;BME280;2670;42.720;23.336;2022-09-13T11:57:30;-23055.59;;;21.18;60.26
5296;BME280;2670;42.720;23.336;2022-09-13T12:00:05;-23060.28;;;21.34;58.81
5296;BME280;2670;42.720;23.336;2022-09-13T12:02:39;-23057.34;;;21.24;59.43
5296;BME280;2670;42.720;23.336;2022-09-13T12:05:14;-23049.75;;;20.98;59.79
5296;BME280;2670;42.720;23.336;2022-09-13T12:07:44;-23047.84;;;20.91;59.78
5296;BME280;2670;42.720;23.336;2022-09-13T12:10:17;-23051.34;;;21.03;60.90
5296;BME280;2670;42.720;23.336;2022-09-13T12:12:46;-23055.00;;;21.16;58.47
5296;BME280;2670;42.720;23.336;2022-09-13T12:15:20;-23055.28;;;21.17;59.00
5296;BME280;2670;42.720;23.336;2022-09-13T12:17:49;-23057.06;;;21.23;59.42
5296;BME280;2670;42.720;23.336;2022-09-13T12:20:27;-23053.69;;;21.11;58.42
5296;BME280;2670;42.720;23.336;2022-09-13T12:22:57;-23056.91;;;21.23;58.75
5296;BME280;2670;42.720;23.336;2022-09-13T12:25:36;-23055.72;;;21.19;60.69
5296;BME280;2670;42.720;23.336;2022-09-13T12:28:12;-23058.66;;;21.29;59.09
5296;BME280;2670;42.720;23.336;2022-09-13T12:30:47;-23061.44;;;21.38;57.91
5296;BME280;2670;42.720;23.336;2022-09-13T12:33:18;-23054.41;;;21.14;57.63
5296;BME280;2670;42.720;23.336;2022-09-13T12:36:08;-23051.94;;;21.05;58.10
5296;BME280;2670;42.720;23.336;2022-09-13T12:39:06;-23047.41;;;20.89;60.42
5296;BME280;2670;42.720;23.336;2022-09-13T12:41:47;-23043.75;;;20.77;59.94
5296;BME280;2670;42.720;23.336;2022-09-13T12:44:31;-23044.63;;;20.80;60.76
5296;BME280;2670;42.720;23.336;2022-09-13T12:47:22;-23049.31;;;20.96;61.25
5296;BME280;2670;42.720;23.336;2022-09-13T12:50:14;-23050.63;;;21.01;61.19
5296;BME280;2670;42.720;23.336;2022-09-13T12:52:51;-23055.00;;;21.16;59.79
5296;BME280;2670;42.720;23.336;2022-09-13T12:55:40;-23055.44;;;21.18;60.79
5296;BME280;2670;42.720;23.336;2022-09-13T12:58:33;-23059.53;;;21.32;58.71
5296;BME280;2670;42.720;23.336;2022-09-13T13:01:08;-23056.63;;;21.22;58.70
5296;BME280;2670;42.720;23.336;2022-09-13T13:03:42;-23052.09;;;21.06;59.09
5296;BME280;2670;42.720;23.336;2022-09-13T13:06:22;-23051.94;;;21.05;57.78
5296;BME280;2670;42.720;23.336;2022-09-13T13:08:53;-23055.72;;;21.19;57.58
5296;BME280;2670;42.720;23.336;2022-09-13T13:11:23;-23056.63;;;21.22;58.24
5296;BME280;2670;42.720;23.336;2022-09-13T13:13:56;-23058.94;;;21.30;59.03
5296;BME280;2670;42.720;23.336;2022-09-13T13:16:26;-23063.50;;;21.46;58.75
5296;BME280;2670;42.720;23.336;2022-09-13T13:18:54;-23062.59;;;21.43;59.07
5296;BME280;2670;42.720;23.336;2022-09-13T13:21:36;-23060.84;;;21.36;60.04
5296;BME280;2670;42.720;23.336;2022-09-13T13:27:42;-23056.19;;;21.20;60.03
5296;BME280;2670;42.720;23.336;2022-09-13T13:30:38;-23054.56;;;21.14;60.87
5296;BME280;2670;42.720;23.336;2022-09-13T13:33:12;-23052.66;;;21.08;58.99
5296;BME280;2670;42.720;23.336;2022-09-13T13:35:40;-23056.31;;;21.21;58.77